createdAt,value
2024-02-10T00:01:39.191Z,17.50
2024-02-10T00:04:07.404Z,19.40
2024-02-10T00:06:35.235Z,21.30
2024-02-10T00:09:02.882Z,17.90
2024-02-10T00:11:30.615Z,17.50
2024-02-10T00:13:58.122Z,20.00
2024-02-10T00:16:25.764Z,18.60
2024-02-10T00:18:53.453Z,18.80
2024-02-10T00:21:21.152Z,17.40
2024-02-10T00:23:48.714Z,14.80
2024-02-10T00:26:16.582Z,16.20
2024-02-10T00:28:44.279Z,17.40
2024-02-10T00:31:11.860Z,16.30
2024-02-10T00:33:39.514Z,15.50
2024-02-10T00:36:07.131Z,16.40
2024-02-10T00:38:34.685Z,13.30
2024-02-10T00:41:02.275Z,16.80
2024-02-10T00:43:29.947Z,14.70
2024-02-10T00:45:57.980Z,15.00
2024-02-10T00:48:25.728Z,14.20
2024-02-10T00:50:53.495Z,17.50
2024-02-10T00:53:21.166Z,16.50
2024-02-10T00:55:48.810Z,15.60
2024-02-10T00:58:16.623Z,15.40
2024-02-10T01:00:44.247Z,16.00
2024-02-10T01:03:11.941Z,14.10
2024-02-10T01:05:40.055Z,14.80
2024-02-10T01:08:08.000Z,15.10
2024-02-10T01:10:35.887Z,16.20
2024-02-10T01:13:03.697Z,17.00
2024-02-10T01:15:31.239Z,17.10
2024-02-10T01:17:58.962Z,15.20
2024-02-10T01:20:26.667Z,17.20
2024-02-10T01:22:54.260Z,17.30
2024-02-10T01:25:21.900Z,18.30
2024-02-10T01:27:49.955Z,18.80
2024-02-10T01:30:17.629Z,16.10
2024-02-10T01:32:45.281Z,15.00
2024-02-10T01:35:12.903Z,18.90
2024-02-10T01:37:40.660Z,16.20
2024-02-10T01:40:08.383Z,17.30
2024-02-10T01:42:35.745Z,15.90
2024-02-10T01:45:03.276Z,18.50
2024-02-10T01:47:30.882Z,21.00
2024-02-10T01:49:59.105Z,19.80
2024-02-10T01:52:26.795Z,15.50
2024-02-10T01:54:54.538Z,16.50
2024-02-10T01:57:22.092Z,13.30
2024-02-10T01:59:49.752Z,16.80
2024-02-10T02:02:17.314Z,15.90
2024-02-10T02:04:44.992Z,13.00
2024-02-10T02:07:12.723Z,13.40
2024-02-10T02:09:40.395Z,16.80
2024-02-10T02:12:07.961Z,16.30
2024-02-10T02:14:35.622Z,13.50
2024-02-10T02:17:03.168Z,13.10
2024-02-10T02:19:30.769Z,12.90
2024-02-10T02:21:58.398Z,14.20
2024-02-10T02:24:25.955Z,13.00
2024-02-10T02:26:53.508Z,16.30
2024-02-10T02:29:22.820Z,11.30
2024-02-10T02:31:50.518Z,15.10
2024-02-10T02:34:18.596Z,13.80
2024-02-10T02:36:46.310Z,12.00
2024-02-10T02:39:13.877Z,12.90
2024-02-10T02:41:41.532Z,12.80
2024-02-10T02:44:09.090Z,15.10
2024-02-10T02:46:36.665Z,13.40
2024-02-10T02:49:04.356Z,11.00
2024-02-10T02:51:31.979Z,11.20
2024-02-10T02:53:59.429Z,11.10
2024-02-10T02:56:26.986Z,13.70
2024-02-10T02:58:54.638Z,11.70
2024-02-10T03:01:22.424Z,12.30
2024-02-10T03:03:50.126Z,11.60
2024-02-10T03:06:17.964Z,12.50
2024-02-10T03:08:45.597Z,12.00
2024-02-10T03:11:13.151Z,11.00
2024-02-10T03:13:41.178Z,10.70
2024-02-10T03:16:08.996Z,11.00
2024-02-10T03:18:36.597Z,13.10
2024-02-10T03:21:04.308Z,10.30
2024-02-10T03:23:31.876Z,12.20
2024-02-10T03:25:59.574Z,10.90
2024-02-10T03:28:27.226Z,11.90
2024-02-10T03:30:54.864Z,11.80
2024-02-10T03:33:22.600Z,9.90
2024-02-10T03:35:50.728Z,10.30
2024-02-10T03:38:18.553Z,12.70
2024-02-10T03:40:46.160Z,10.70
2024-02-10T03:43:13.707Z,10.20
2024-02-10T03:45:41.461Z,9.70
2024-02-10T03:48:09.199Z,13.00
2024-02-10T03:50:36.863Z,9.70
2024-02-10T03:53:04.565Z,11.30
2024-02-10T03:55:32.238Z,11.10
2024-02-10T03:57:59.844Z,9.80
2024-02-10T04:00:27.424Z,8.70
2024-02-10T04:02:55.073Z,8.70
2024-02-10T04:05:22.786Z,12.50
2024-02-10T04:07:50.458Z,12.40
2024-02-10T04:10:18.321Z,9.80
2024-02-10T04:12:45.919Z,8.40
2024-02-10T04:15:13.796Z,8.10
2024-02-10T04:17:41.488Z,9.60
2024-02-10T04:20:09.160Z,8.10
2024-02-10T04:22:36.740Z,9.50
2024-02-10T04:25:04.532Z,7.70
2024-02-10T04:27:32.092Z,9.00
2024-02-10T04:29:59.653Z,9.00
2024-02-10T04:32:27.340Z,8.80
2024-02-10T04:34:55.264Z,7.90
2024-02-10T04:37:23.092Z,11.20
2024-02-10T04:39:51.113Z,9.00
2024-02-10T04:42:18.670Z,11.00
2024-02-10T04:44:46.237Z,11.50
2024-02-10T04:47:13.791Z,9.90
2024-02-10T04:49:41.484Z,11.70
2024-02-10T04:52:09.221Z,11.50
2024-02-10T04:54:36.771Z,13.90
2024-02-10T04:57:04.338Z,11.30
2024-02-10T04:59:31.788Z,12.10
2024-02-10T05:01:59.695Z,11.70
2024-02-10T05:04:27.539Z,12.30
2024-02-10T05:06:55.182Z,13.60
2024-02-10T05:09:22.850Z,11.70
2024-02-10T05:11:50.511Z,11.50
2024-02-10T05:14:18.382Z,13.10
2024-02-10T05:16:45.977Z,11.70
2024-02-10T05:19:13.793Z,11.20
2024-02-10T05:21:41.461Z,13.00
2024-02-10T05:24:09.120Z,11.90
2024-02-10T05:26:36.682Z,12.00
2024-02-10T05:29:04.350Z,13.30
2024-02-10T05:31:31.923Z,14.50
2024-02-10T05:33:59.582Z,12.00
2024-02-10T05:36:27.117Z,13.30
2024-02-10T05:38:54.780Z,12.30
2024-02-10T05:41:22.447Z,11.20
2024-02-10T05:43:50.388Z,11.30
2024-02-10T05:46:18.182Z,10.60
2024-02-10T05:48:45.812Z,14.20
2024-02-10T05:51:13.597Z,12.10
2024-02-10T05:53:41.156Z,10.90
2024-02-10T05:56:08.842Z,13.80
2024-02-10T05:58:36.403Z,13.90
2024-02-10T06:01:04.045Z,17.70
2024-02-10T06:03:31.921Z,12.60
2024-02-10T06:05:59.586Z,14.40
2024-02-10T06:08:27.327Z,13.20
2024-02-10T06:10:54.894Z,13.10
2024-02-10T06:13:22.480Z,16.60
2024-02-10T06:15:50.008Z,13.50
2024-02-10T06:18:17.679Z,14.20
2024-02-10T06:20:45.241Z,15.40
2024-02-10T06:23:12.892Z,16.30
2024-02-10T06:25:43.631Z,15.70
2024-02-10T06:28:11.592Z,14.50
2024-02-10T06:30:39.151Z,12.70
2024-02-10T06:33:06.826Z,14.00
2024-02-10T06:35:34.673Z,13.40
2024-02-10T06:38:02.277Z,12.00
2024-02-10T06:40:30.186Z,11.00
2024-02-10T06:42:58.089Z,11.70
2024-02-10T06:45:26.552Z,14.30
2024-02-10T06:47:54.746Z,12.30
2024-02-10T06:50:22.703Z,19.00
2024-02-10T06:52:50.415Z,36.10
2024-02-10T06:55:18.037Z,23.50
2024-02-10T06:57:45.777Z,19.40
2024-02-10T07:00:13.332Z,20.90
2024-02-10T07:02:40.691Z,26.50
2024-02-10T07:05:08.380Z,38.00
2024-02-10T07:07:36.652Z,47.80
2024-02-10T07:10:04.287Z,30.40
2024-02-10T07:12:31.645Z,34.00
2024-02-10T07:14:59.201Z,46.50
2024-02-10T07:17:26.863Z,33.10
2024-02-10T07:19:54.737Z,22.80
2024-02-10T07:22:22.422Z,24.00
2024-02-10T07:24:50.160Z,18.40
2024-02-10T07:27:17.815Z,22.20
2024-02-10T07:29:45.380Z,17.20
2024-02-10T07:32:13.037Z,16.10
2024-02-10T07:34:40.919Z,16.00
2024-02-10T07:37:08.458Z,14.80
2024-02-10T07:39:36.117Z,15.00
2024-02-10T07:42:03.675Z,13.90
2024-02-10T07:44:31.238Z,12.60
2024-02-10T07:46:58.860Z,12.70
2024-02-10T07:49:26.563Z,11.40
2024-02-10T07:51:54.117Z,11.60
2024-02-10T07:54:21.787Z,11.40
2024-02-10T07:56:49.342Z,11.00
2024-02-10T07:59:17.022Z,10.90
2024-02-10T08:01:44.595Z,13.30
2024-02-10T08:04:12.108Z,12.10
2024-02-10T08:06:39.713Z,11.40
2024-02-10T08:09:07.337Z,14.70
2024-02-10T08:11:35.001Z,11.70
2024-02-10T08:14:02.675Z,10.30
2024-02-10T08:16:30.392Z,12.10
2024-02-10T08:18:58.205Z,14.00
2024-02-10T08:21:25.956Z,11.00
2024-02-10T08:23:53.555Z,11.90
2024-02-10T08:26:21.301Z,13.60
2024-02-10T08:28:49.074Z,15.00
2024-02-10T08:31:16.805Z,15.50
2024-02-10T08:33:45.025Z,19.00
2024-02-10T08:36:12.835Z,17.50
2024-02-10T08:38:40.547Z,18.10
2024-02-10T08:41:08.247Z,18.90
2024-02-10T08:43:35.947Z,19.10
2024-02-10T08:46:03.592Z,21.90
2024-02-10T08:48:31.237Z,19.40
2024-02-10T08:50:59.058Z,18.90
2024-02-10T08:53:26.990Z,19.90
2024-02-10T08:55:54.696Z,18.40
2024-02-10T08:58:22.342Z,18.20
2024-02-10T09:00:50.018Z,20.20
2024-02-10T09:03:17.821Z,18.00
2024-02-10T09:05:45.489Z,18.90
2024-02-10T09:08:13.127Z,19.60
2024-02-10T09:10:40.945Z,21.00
2024-02-10T09:13:08.890Z,23.10
2024-02-10T09:15:36.463Z,19.90
2024-02-10T09:18:04.269Z,19.50
2024-02-10T09:20:31.983Z,18.10
2024-02-10T09:22:59.691Z,21.50
2024-02-10T09:25:27.488Z,19.60
2024-02-10T09:27:55.359Z,18.90
2024-02-10T09:30:22.937Z,18.40
2024-02-10T09:32:50.545Z,16.60
2024-02-10T09:35:25.035Z,15.50
2024-02-10T09:37:56.198Z,15.80
2024-02-10T09:40:23.991Z,16.40
2024-02-10T09:42:51.782Z,13.80
2024-02-10T09:45:19.336Z,14.90
2024-02-10T09:47:47.029Z,15.40
2024-02-10T09:50:27.670Z,14.70
2024-02-10T09:53:02.038Z,12.90
2024-02-10T09:55:29.765Z,14.90
2024-02-10T09:57:57.401Z,17.10
2024-02-10T10:00:24.970Z,15.20
2024-02-10T10:02:52.570Z,14.50
2024-02-10T10:05:20.475Z,12.10
2024-02-10T10:07:48.279Z,15.20
2024-02-10T10:10:15.914Z,13.60
2024-02-10T10:12:44.189Z,13.60
2024-02-10T10:15:11.867Z,12.90
2024-02-10T10:17:39.468Z,11.10
2024-02-10T10:20:07.258Z,10.90
2024-02-10T10:22:34.782Z,12.70
2024-02-10T10:25:02.430Z,11.90
2024-02-10T10:27:30.062Z,11.30
2024-02-10T10:29:57.690Z,11.00
2024-02-10T10:32:25.517Z,10.10
2024-02-10T10:34:53.164Z,9.00
2024-02-10T10:37:20.702Z,12.00
2024-02-10T10:39:48.380Z,10.50
2024-02-10T10:42:16.039Z,10.70
2024-02-10T10:44:43.695Z,11.80
2024-02-10T10:47:11.301Z,9.80
2024-02-10T10:49:39.158Z,10.30
2024-02-10T10:52:06.783Z,11.80
2024-02-10T10:54:34.326Z,12.00
2024-02-10T10:57:02.341Z,11.40
2024-02-10T10:59:29.855Z,12.00
2024-02-10T11:01:57.550Z,12.90
2024-02-10T11:04:25.207Z,10.10
2024-02-10T11:06:52.955Z,12.90
2024-02-10T11:09:20.504Z,11.50
2024-02-10T11:11:48.165Z,11.80
2024-02-10T11:14:15.748Z,10.00
2024-02-10T11:16:43.726Z,9.00
2024-02-10T11:19:12.920Z,11.10
2024-02-10T11:21:41.992Z,8.70
2024-02-10T11:24:09.656Z,8.30
2024-02-10T11:26:37.204Z,9.00
2024-02-10T11:29:04.902Z,10.90
2024-02-10T11:31:32.675Z,11.00
2024-02-10T11:34:00.650Z,9.20
2024-02-10T11:36:29.660Z,9.60
2024-02-10T11:38:57.359Z,9.10
2024-02-10T11:41:25.328Z,7.80
2024-02-10T11:43:52.947Z,8.10
2024-02-10T11:46:20.782Z,10.80
2024-02-10T11:48:48.380Z,7.90
2024-02-10T11:51:15.962Z,8.60
2024-02-10T11:53:43.626Z,9.10
2024-02-10T11:56:11.354Z,9.90
2024-02-10T11:58:39.272Z,8.50
2024-02-10T12:01:07.424Z,9.20
2024-02-10T12:03:35.210Z,8.10
2024-02-10T12:06:03.137Z,8.70
2024-02-10T12:08:30.935Z,8.20
2024-02-10T12:10:58.713Z,16.10
2024-02-10T12:13:26.633Z,15.50
2024-02-10T12:15:54.341Z,9.00
2024-02-10T12:18:21.906Z,8.70
2024-02-10T12:20:49.552Z,11.90
2024-02-10T12:23:17.216Z,11.50
2024-02-10T12:25:44.801Z,10.20
2024-02-10T12:28:12.431Z,11.20
2024-02-10T12:30:39.983Z,8.80
2024-02-10T12:33:07.614Z,10.50
2024-02-10T12:35:35.300Z,10.40
2024-02-10T12:38:02.979Z,9.70
2024-02-10T12:40:30.747Z,9.40
2024-02-10T12:42:58.384Z,11.30
2024-02-10T12:45:25.955Z,11.20
2024-02-10T12:47:53.672Z,11.00
2024-02-10T12:50:21.443Z,8.20
2024-02-10T12:52:49.151Z,8.60
2024-02-10T12:55:16.835Z,6.60
2024-02-10T12:57:44.495Z,7.90
2024-02-10T13:00:12.022Z,6.50
2024-02-10T13:02:39.479Z,9.10
2024-02-10T13:05:07.080Z,6.20
2024-02-10T13:07:34.952Z,5.90
2024-02-10T13:10:02.772Z,6.60
2024-02-10T13:12:30.321Z,6.40
2024-02-10T13:14:57.886Z,6.90
2024-02-10T13:17:25.711Z,7.80
2024-02-10T13:19:54.004Z,7.60
2024-02-10T13:22:22.010Z,5.80
2024-02-10T13:24:49.661Z,9.30
2024-02-10T13:27:17.520Z,7.40
2024-02-10T13:29:45.444Z,8.20
2024-02-10T13:32:13.271Z,6.90
2024-02-10T13:34:50.871Z,7.60
2024-02-10T13:37:28.471Z,6.80
2024-02-10T13:39:56.013Z,6.00
2024-02-10T13:42:23.666Z,7.90
2024-02-10T13:44:51.525Z,9.30
2024-02-10T13:47:19.087Z,6.00
2024-02-10T13:49:46.758Z,7.20
2024-02-10T13:52:14.309Z,9.60
2024-02-10T13:54:41.973Z,8.30
2024-02-10T13:57:09.532Z,6.70
2024-02-10T13:59:37.195Z,7.50
2024-02-10T14:02:04.785Z,7.90
2024-02-10T14:04:32.900Z,8.00
2024-02-10T14:07:00.585Z,7.10
2024-02-10T14:09:28.145Z,8.30
2024-02-10T14:11:55.815Z,8.70
2024-02-10T14:14:23.366Z,8.50
2024-02-10T14:16:51.057Z,8.00
2024-02-10T14:19:18.683Z,6.00
2024-02-10T14:21:46.262Z,6.90
2024-02-10T14:24:15.367Z,7.00
2024-02-10T14:26:44.135Z,7.10
2024-02-10T14:29:11.887Z,9.70
2024-02-10T14:31:39.615Z,9.60
2024-02-10T14:34:07.341Z,11.00
2024-02-10T14:36:34.977Z,7.90
2024-02-10T14:39:02.433Z,13.80
2024-02-10T14:41:30.097Z,9.10
2024-02-10T14:43:57.775Z,10.50
2024-02-10T14:46:25.329Z,8.60
2024-02-10T14:48:53.226Z,11.00
2024-02-10T14:51:21.050Z,15.00
2024-02-10T14:53:48.717Z,10.70
2024-02-10T14:56:16.364Z,13.80
2024-02-10T14:58:44.172Z,9.00
2024-02-10T15:01:12.176Z,11.20
2024-02-10T15:03:40.144Z,11.80
2024-02-10T15:06:07.938Z,14.00
2024-02-10T15:08:35.603Z,19.00
2024-02-10T15:11:03.550Z,11.50
2024-02-10T15:13:31.339Z,9.60
2024-02-10T15:15:58.909Z,10.30
2024-02-10T15:18:26.557Z,9.40
2024-02-10T15:20:54.209Z,11.10
2024-02-10T15:23:21.767Z,9.10
2024-02-10T15:25:49.356Z,11.80
2024-02-10T15:28:17.398Z,14.30
2024-02-10T15:30:44.960Z,13.90
2024-02-10T15:33:12.567Z,11.00
2024-02-10T15:35:40.373Z,10.90
2024-02-10T15:38:08.161Z,12.00
2024-02-10T15:40:35.847Z,10.10
2024-02-10T15:43:03.475Z,11.40
2024-02-10T15:45:31.030Z,12.00
2024-02-10T15:47:58.820Z,13.90
2024-02-10T15:50:26.455Z,10.00
2024-02-10T15:52:54.220Z,10.10
2024-02-10T15:55:21.878Z,11.40
2024-02-10T15:57:49.548Z,11.20
2024-02-10T16:00:17.555Z,9.90
2024-02-10T16:02:45.071Z,15.90
2024-02-10T16:05:12.855Z,13.50
2024-02-10T16:07:40.598Z,14.10
2024-02-10T16:10:08.350Z,9.80
2024-02-10T16:12:35.911Z,12.20
2024-02-10T16:15:03.891Z,20.40
2024-02-10T16:17:31.564Z,18.40
2024-02-10T16:19:59.217Z,14.10
2024-02-10T16:22:26.796Z,13.60
2024-02-10T16:24:54.524Z,13.20
2024-02-10T16:27:22.089Z,13.60
2024-02-10T16:29:50.574Z,11.00
2024-02-10T16:32:18.193Z,11.60
2024-02-10T16:34:45.814Z,16.40
2024-02-10T16:37:13.456Z,20.90
2024-02-10T16:39:41.111Z,26.80
2024-02-10T16:42:08.669Z,26.80
2024-02-10T16:44:36.222Z,19.30
2024-02-10T16:47:04.439Z,17.20
2024-02-10T16:49:32.099Z,16.10
2024-02-10T16:51:59.940Z,17.20
2024-02-10T16:54:27.685Z,17.30
2024-02-10T16:56:55.654Z,14.70
2024-02-10T16:59:26.196Z,31.30
2024-02-10T17:01:55.424Z,34.20
2024-02-10T17:04:23.295Z,30.10
2024-02-10T17:06:51.232Z,42.10
2024-02-10T17:09:18.781Z,79.50
2024-02-10T17:11:46.437Z,86.50
2024-02-10T17:14:14.052Z,82.40
2024-02-10T17:16:41.737Z,139.00
2024-02-10T17:19:09.834Z,278.30
2024-02-10T17:21:37.589Z,100.20
2024-02-10T17:24:05.154Z,56.00
2024-02-10T17:26:32.718Z,85.80
2024-02-10T17:29:00.300Z,106.70
2024-02-10T17:31:28.058Z,76.50
2024-02-10T17:33:55.690Z,77.70
2024-02-10T17:36:23.404Z,74.10
2024-02-10T17:38:51.037Z,67.90
2024-02-10T17:41:19.057Z,67.60
2024-02-10T17:43:46.672Z,51.30
2024-02-10T17:46:14.417Z,42.20
2024-02-10T17:48:42.046Z,60.90
2024-02-10T17:51:09.847Z,68.30
2024-02-10T17:53:38.052Z,65.00
2024-02-10T17:56:05.907Z,59.20
2024-02-10T17:58:33.970Z,60.70
2024-02-10T18:01:02.254Z,55.60
2024-02-10T18:03:32.602Z,56.30
2024-02-10T18:06:02.722Z,49.60
2024-02-10T18:08:30.847Z,47.50
2024-02-10T18:10:58.737Z,42.30
2024-02-10T18:13:26.616Z,40.00
2024-02-10T18:15:54.136Z,38.40
2024-02-10T18:18:21.802Z,37.20
2024-02-10T18:20:49.377Z,35.90
2024-02-10T18:23:17.206Z,33.90
2024-02-10T18:25:45.364Z,32.10
2024-02-10T18:28:13.273Z,30.50
2024-02-10T18:30:40.829Z,36.60
2024-02-10T18:33:08.599Z,33.00
2024-02-10T18:35:36.251Z,33.20
2024-02-10T18:38:03.996Z,31.40
2024-02-10T18:40:31.707Z,28.20
2024-02-10T18:42:59.568Z,28.40
2024-02-10T18:45:27.410Z,30.50
2024-02-10T18:47:55.160Z,28.10
2024-02-10T18:50:23.090Z,32.20
2024-02-10T18:52:50.927Z,27.10
2024-02-10T18:55:18.670Z,27.90
2024-02-10T18:57:46.321Z,29.00
2024-02-10T19:00:13.894Z,29.80
2024-02-10T19:02:41.342Z,29.00
2024-02-10T19:05:08.990Z,24.10
2024-02-10T19:07:36.873Z,24.60
2024-02-10T19:10:04.742Z,26.90
2024-02-10T19:12:32.398Z,21.40
2024-02-10T19:14:59.978Z,29.00
2024-02-10T19:17:27.628Z,25.70
2024-02-10T19:19:55.294Z,30.80
2024-02-10T19:22:22.849Z,24.40
2024-02-10T19:24:50.502Z,23.60
2024-02-10T19:27:18.461Z,19.80
2024-02-10T19:29:46.032Z,20.00
2024-02-10T19:32:13.676Z,21.30
2024-02-10T19:34:41.920Z,19.40
2024-02-10T19:37:09.722Z,21.80
2024-02-10T19:39:37.381Z,18.10
2024-02-10T19:42:05.041Z,18.30
2024-02-10T19:44:33.021Z,20.90
2024-02-10T19:47:01.019Z,15.70
2024-02-10T19:49:28.785Z,16.30
2024-02-10T19:51:56.511Z,15.90
2024-02-10T19:54:24.060Z,17.60
2024-02-10T19:56:51.627Z,18.70
2024-02-10T19:59:19.225Z,15.00
2024-02-10T20:01:47.090Z,20.90
2024-02-10T20:04:14.714Z,37.10
2024-02-10T20:06:42.862Z,24.00
2024-02-10T20:09:10.654Z,23.00
2024-02-10T20:11:38.310Z,22.10
2024-02-10T20:14:06.016Z,20.40
2024-02-10T20:16:38.671Z,17.00
2024-02-10T20:19:06.441Z,17.50
2024-02-10T20:21:34.089Z,18.40
2024-02-10T20:24:01.766Z,17.80
2024-02-10T20:26:29.509Z,23.80
2024-02-10T20:28:57.403Z,17.90
2024-02-10T20:31:25.094Z,17.00
2024-02-10T20:33:52.825Z,25.00
2024-02-10T20:36:20.653Z,17.60
2024-02-10T20:38:48.207Z,20.80
2024-02-10T20:41:15.847Z,20.40
2024-02-10T20:43:43.588Z,18.10
2024-02-10T20:46:11.093Z,18.80
2024-02-10T20:48:39.138Z,24.40
2024-02-10T20:51:07.034Z,19.30
2024-02-10T20:53:35.949Z,20.70
2024-02-10T20:56:03.535Z,21.40
2024-02-10T20:58:31.303Z,21.20
2024-02-10T21:00:58.997Z,16.70
2024-02-10T21:03:26.922Z,21.30
2024-02-10T21:05:54.706Z,19.30
2024-02-10T21:08:22.806Z,20.90
2024-02-10T21:10:50.392Z,20.50
2024-02-10T21:13:18.052Z,29.80
2024-02-10T21:15:45.693Z,25.70
2024-02-10T21:18:13.453Z,30.30
2024-02-10T21:20:41.385Z,23.80
2024-02-10T21:23:09.209Z,26.30
2024-02-10T21:25:37.018Z,24.00
2024-02-10T21:28:04.712Z,22.50
2024-02-10T21:30:32.711Z,23.60
2024-02-10T21:33:00.383Z,19.90
2024-02-10T21:35:28.207Z,22.50
2024-02-10T21:37:55.898Z,23.60
2024-02-10T21:40:23.533Z,25.10
2024-02-10T21:42:50.887Z,23.80
2024-02-10T21:45:18.549Z,25.90
2024-02-10T21:47:46.339Z,22.20
2024-02-10T21:50:14.224Z,30.10
2024-02-10T21:52:41.958Z,23.20
2024-02-10T21:55:09.595Z,28.10
2024-02-10T21:57:37.484Z,41.90
2024-02-10T22:00:05.124Z,26.20
2024-02-10T22:02:34.737Z,26.10
2024-02-10T22:05:03.282Z,28.60
2024-02-10T22:07:31.120Z,31.30
2024-02-10T22:09:58.649Z,28.30
2024-02-10T22:12:26.297Z,23.40
2024-02-10T22:14:54.267Z,26.80
2024-02-10T22:17:21.866Z,33.00
2024-02-10T22:19:49.498Z,26.70
2024-02-10T22:22:17.148Z,24.90
2024-02-10T22:24:44.821Z,21.30
2024-02-10T22:27:12.470Z,26.10
2024-02-10T22:29:40.131Z,29.70
2024-02-10T22:32:08.048Z,23.40
2024-02-10T22:34:35.780Z,26.60
2024-02-10T22:37:04.025Z,22.20
2024-02-10T22:39:31.709Z,25.20
2024-02-10T22:41:59.367Z,25.90
2024-02-10T22:44:26.941Z,30.50
2024-02-10T22:47:02.346Z,21.20
2024-02-10T22:49:38.008Z,19.90
2024-02-10T22:52:05.685Z,21.10
2024-02-10T22:54:35.338Z,21.00
2024-02-10T22:57:04.502Z,26.30
2024-02-10T22:59:32.146Z,19.40
2024-02-10T23:01:59.755Z,23.20
2024-02-10T23:04:27.469Z,21.50
2024-02-10T23:06:55.045Z,22.30
2024-02-10T23:09:22.591Z,25.10
2024-02-10T23:11:50.249Z,28.70
2024-02-10T23:14:18.131Z,16.60
2024-02-10T23:16:45.893Z,20.90
2024-02-10T23:19:13.446Z,23.50
2024-02-10T23:21:41.094Z,21.10
2024-02-10T23:24:08.657Z,22.00
2024-02-10T23:26:36.321Z,24.80
2024-02-10T23:29:04.008Z,17.90
2024-02-10T23:31:31.731Z,18.60
2024-02-10T23:33:59.555Z,17.20
2024-02-10T23:36:27.483Z,19.20
2024-02-10T23:38:55.129Z,16.00
2024-02-10T23:41:22.708Z,13.80
2024-02-10T23:43:50.270Z,12.80
2024-02-10T23:46:17.928Z,16.00
2024-02-10T23:48:50.870Z,17.10
2024-02-10T23:51:21.743Z,17.20
2024-02-10T23:53:49.294Z,12.30
2024-02-10T23:56:17.327Z,13.20
2024-02-10T23:58:45.024Z,14.60
